Time;durP1;ratioP1;P1;durP2;ratioP2;P2;SDS_P1;SDS_P2;PMS_P1;PMS_P2;Temp;Humidity;BMP_temperature;BMP_pressure;BME280_temperature;BME280_humidity;BME280_pressure;Samples;Min_cycle;Max_cycle;Signal;HPM_P1;HPM_P2
2022/11/11 00:00:06;;;;;;;3.80;1.20;;;19.80;84.70;;;;;;6274403;22;45284;-68
2022/11/11 00:02:33;;;;;;;2.70;0.90;;;19.80;84.70;;;;;;6271846;22;45311;-68
2022/11/11 00:04:59;;;;;;;1.98;0.90;;;19.80;84.80;;;;;;6270701;22;45412;-68
2022/11/11 00:07:27;;;;;;;1.60;0.80;;;19.80;84.30;;;;;;6273130;22;45453;-68
2022/11/11 00:09:53;;;;;;;1.13;0.80;;;19.80;84.20;;;;;;6273834;22;45118;-68
2022/11/11 00:12:20;;;;;;;1.27;0.90;;;19.80;83.70;;;;;;6273024;22;45426;-68
2022/11/11 00:14:47;;;;;;;1.58;1.00;;;19.80;84.10;;;;;;6273376;22;45410;-68
2022/11/11 00:25:27;;;;;;;1.60;0.90;;;19.80;84.20;;;;;;6272897;22;45345;-67
2022/11/11 00:27:54;;;;;;;2.08;1.00;;;19.80;83.30;;;;;;6273917;22;45195;-67
2022/11/11 00:30:21;;;;;;;0.98;0.70;;;19.80;83.80;;;;;;6272309;22;45537;-68
2022/11/11 00:32:49;;;;;;;2.60;0.77;;;19.80;84.00;;;;;;6271118;22;45217;-68
2022/11/11 00:38:07;;;;;;;1.00;0.63;;;19.80;83.80;;;;;;6273598;22;45395;-68
2022/11/11 00:40:34;;;;;;;1.75;0.80;;;19.80;83.90;;;;;;6273561;22;45444;-68
2022/11/11 00:43:01;;;;;;;2.15;0.98;;;19.80;83.50;;;;;;6272111;22;45263;-68
2022/11/11 00:45:28;;;;;;;1.95;0.90;;;19.80;83.80;;;;;;6273169;22;45295;-68
2022/11/11 00:53:34;;;;;;;1.35;0.90;;;19.80;83.70;;;;;;6249032;22;46638;-67
2022/11/11 00:56:00;;;;;;;0.80;0.80;;;19.80;83.30;;;;;;6273276;22;45224;-68
2022/11/11 00:58:27;;;;;;;2.65;1.02;;;19.80;83.70;;;;;;6273988;22;45221;-67
2022/11/11 01:00:54;;;;;;;1.60;0.80;;;19.80;83.40;;;;;;6272261;22;45273;-68
2022/11/11 01:03:24;;;;;;;1.40;0.77;;;19.80;83.10;;;;;;6273638;22;46451;-68
2022/11/11 01:05:50;;;;;;;2.47;0.90;;;19.80;83.20;;;;;;6270982;22;45265;-68
2022/11/11 01:08:17;;;;;;;1.15;0.80;;;19.80;82.90;;;;;;6273537;22;45271;-68
2022/11/11 01:10:45;;;;;;;2.58;1.00;;;19.70;82.70;;;;;;6272386;22;45341;-68
2022/11/11 01:13:16;;;;;;;1.65;0.75;;;19.80;82.60;;;;;;6272610;22;45551;-67
2022/11/11 01:15:46;;;;;;;3.58;0.93;;;19.80;82.80;;;;;;6273394;22;45234;-68
2022/11/11 01:18:15;;;;;;;1.25;0.80;;;19.80;82.80;;;;;;6273098;22;45383;-68
2022/11/11 01:20:43;;;;;;;1.55;0.90;;;19.80;82.70;;;;;;6273443;22;45431;-68
2022/11/11 01:23:12;;;;;;;1.33;0.88;;;19.80;82.80;;;;;;6272284;22;47168;-68
2022/11/11 01:25:42;;;;;;;1.33;0.90;;;19.80;82.60;;;;;;6272869;22;45259;-69
2022/11/11 01:28:09;;;;;;;1.58;0.80;;;19.80;82.10;;;;;;6272913;22;45306;-68
2022/11/11 01:30:36;;;;;;;1.65;0.80;;;19.80;82.70;;;;;;6273327;22;45387;-68
2022/11/11 01:33:04;;;;;;;1.25;0.90;;;19.80;83.10;;;;;;6270237;22;47057;-68
2022/11/11 01:35:31;;;;;;;2.67;0.90;;;19.80;83.00;;;;;;6272577;22;45355;-68
2022/11/11 01:37:59;;;;;;;1.10;0.80;;;19.80;82.90;;;;;;6273521;22;45259;-68
2022/11/11 01:40:27;;;;;;;1.05;0.80;;;19.80;82.80;;;;;;6272647;22;45274;-68
2022/11/11 01:43:15;;;;;;;1.52;0.90;;;19.80;82.90;;;;;;6273309;22;46108;-69
2022/11/11 01:45:53;;;;;;;1.40;0.90;;;19.80;82.60;;;;;;6273691;22;45818;-68
2022/11/11 01:51:16;;;;;;;1.63;1.08;;;19.80;82.30;;;;;;6273652;22;45240;-68
2022/11/11 01:53:46;;;;;;;1.10;0.82;;;19.80;82.60;;;;;;6274599;22;47064;-68
2022/11/11 01:56:13;;;;;;;1.67;0.88;;;19.80;82.40;;;;;;6273991;22;45228;-68
2022/11/11 01:58:40;;;;;;;1.55;0.90;;;19.80;82.00;;;;;;6274595;22;45192;-68
2022/11/11 02:01:07;;;;;;;3.53;0.95;;;19.80;82.00;;;;;;6273926;22;45255;-68
2022/11/11 02:05:40;;;;;;;1.45;0.68;;;19.80;81.60;;;;;;6273775;22;45421;-68
2022/11/11 02:06:25;;;;;;;1.88;1.13;;;19.80;81.70;;;;;;6271627;22;45422;-67
2022/11/11 02:08:53;;;;;;;1.63;0.82;;;19.80;81.60;;;;;;6274125;22;45338;-68
2022/11/11 02:16:50;;;;;;;1.45;1.00;;;19.70;81.30;;;;;;6274308;22;45383;-68
2022/11/11 02:19:21;;;;;;;1.35;0.90;;;19.70;80.80;;;;;;6274014;22;45319;-68
2022/11/11 02:21:55;;;;;;;1.45;1.08;;;19.70;81.50;;;;;;6273823;22;45383;-68
2022/11/11 02:24:24;;;;;;;2.75;1.05;;;19.80;81.70;;;;;;6273691;22;47078;-68
2022/11/11 02:26:54;;;;;;;1.45;0.90;;;19.70;81.60;;;;;;6274199;22;45444;-68
2022/11/11 02:29:22;;;;;;;2.22;1.25;;;19.80;81.80;;;;;;6274191;22;45325;-68
2022/11/11 02:31:49;;;;;;;1.45;0.73;;;19.70;81.50;;;;;;6272314;22;45387;-69
2022/11/11 02:34:16;;;;;;;1.65;0.88;;;19.80;81.70;;;;;;6274178;22;47478;-68
2022/11/11 02:36:43;;;;;;;1.90;1.02;;;19.70;81.70;;;;;;6273568;22;45299;-69
2022/11/11 02:39:10;;;;;;;1.65;0.90;;;19.80;81.80;;;;;;6274528;22;45299;-68
2022/11/11 02:41:57;;;;;;;1.27;0.80;;;19.80;81.80;;;;;;6273492;22;45196;-68
2022/11/11 02:44:24;;;;;;;1.95;0.90;;;19.80;81.80;;;;;;6274452;22;47680;-68
2022/11/11 02:46:51;;;;;;;2.35;0.70;;;19.70;81.40;;;;;;6273945;22;45223;-68
2022/11/11 02:49:18;;;;;;;1.00;0.60;;;19.80;81.40;;;;;;6273934;22;45293;-68
2022/11/11 02:51:47;;;;;;;1.77;1.00;;;19.80;81.10;;;;;;6273179;22;45187;-69
2022/11/11 02:54:14;;;;;;;1.73;1.00;;;19.70;80.80;;;;;;6272880;22;46312;-68
2022/11/11 02:59:26;;;;;;;0.73;0.70;;;19.70;80.20;;;;;;6274970;22;45262;-68
2022/11/11 03:01:53;;;;;;;2.45;0.95;;;19.70;80.40;;;;;;6274327;22;45247;-68
2022/11/11 03:04:20;;;;;;;1.42;0.80;;;19.70;80.20;;;;;;6274200;22;47374;-68
2022/11/11 03:06:46;;;;;;;1.67;0.90;;;19.70;79.80;;;;;;6273115;22;45263;-68
2022/11/11 03:09:13;;;;;;;1.10;0.80;;;19.70;80.00;;;;;;6274401;22;45298;-68
2022/11/11 03:11:41;;;;;;;3.40;1.00;;;19.70;80.30;;;;;;6272801;22;45486;-68
2022/11/11 03:14:09;;;;;;;1.20;0.70;;;19.70;79.90;;;;;;6273994;22;47500;-68
2022/11/11 03:19:20;;;;;;;1.58;0.82;;;19.70;80.70;;;;;;6274436;22;45220;-68
2022/11/11 03:21:47;;;;;;;1.67;0.88;;;19.70;80.70;;;;;;6273541;22;45228;-68
2022/11/11 03:24:14;;;;;;;1.15;0.63;;;19.70;80.30;;;;;;6273664;22;45255;-68
2022/11/11 03:26:42;;;;;;;1.30;0.80;;;19.70;80.40;;;;;;6274172;22;45337;-68
2022/11/11 03:29:08;;;;;;;1.17;0.93;;;19.70;80.70;;;;;;6273970;22;45284;-68
2022/11/11 03:31:36;;;;;;;2.10;0.80;;;19.70;80.50;;;;;;6272204;22;45188;-68
2022/11/11 03:39:44;;;;;;;1.20;0.90;;;19.70;80.20;;;;;;5158733;27;45334;-68
2022/11/11 03:42:11;;;;;;;1.08;0.90;;;19.70;80.20;;;;;;5161065;27;45220;-69
2022/11/11 03:44:38;;;;;;;1.05;0.90;;;19.70;80.10;;;;;;5144354;27;45213;-69
2022/11/11 03:47:04;;;;;;;1.98;0.90;;;19.70;79.70;;;;;;5139885;27;45615;-69
2022/11/11 03:49:31;;;;;;;1.25;0.77;;;19.70;79.50;;;;;;5140638;27;45357;-69
2022/11/11 03:51:59;;;;;;;1.13;0.82;;;19.70;79.20;;;;;;5139635;27;45373;-69
2022/11/11 03:54:26;;;;;;;0.98;0.80;;;19.70;80.20;;;;;;5140273;27;45272;-69
2022/11/11 03:57:29;;;;;;;1.58;1.10;;;19.70;78.80;;;;;;5139907;27;47542;-69
2022/11/11 03:59:41;;;;;;;1.40;0.73;;;19.70;78.90;;;;;;5140915;27;45513;-69
2022/11/11 04:10:25;;;;;;;2.03;0.98;;;19.70;79.20;;;;;;5139987;27;45507;-70
2022/11/11 04:21:42;;;;;;;1.15;0.93;;;19.70;79.30;;;;;;5141224;27;45431;-69
2022/11/11 04:23:55;;;;;;;1.50;0.90;;;19.70;79.60;;;;;;5158820;27;45459;-69
2022/11/11 04:26:20;;;;;;;1.83;1.00;;;19.70;79.50;;;;;;5160549;27;45659;-69
2022/11/11 04:31:32;;;;;;;1.77;1.08;;;19.70;79.60;;;;;;5138073;27;45396;-69
2022/11/11 04:33:57;;;;;;;3.03;1.02;;;19.70;79.30;;;;;;5147788;27;45421;-69
2022/11/11 04:36:24;;;;;;;1.83;1.10;;;19.70;79.10;;;;;;5160385;27;45519;-69
2022/11/11 04:41:37;;;;;;;1.83;0.98;;;19.70;78.00;;;;;;5156938;27;45281;-69
2022/11/11 04:46:48;;;;;;;1.45;1.00;;;19.70;78.00;;;;;;5148248;27;45348;-68
2022/11/11 04:49:15;;;;;;;3.38;1.20;;;19.70;78.00;;;;;;5145745;27;48005;-69
2022/11/11 04:54:26;;;;;;;1.20;0.95;;;19.70;78.00;;;;;;5143257;27;45386;-69
2022/11/11 04:56:53;;;;;;;1.98;1.20;;;19.70;78.00;;;;;;5145071;27;45416;-68
2022/11/11 04:59:20;;;;;;;2.03;1.00;;;19.70;78.00;;;;;;5146440;27;47680;-68
2022/11/11 05:04:31;;;;;;;1.15;1.00;;;19.70;78.00;;;;;;5143456;27;45322;-69
2022/11/11 05:09:42;;;;;;;1.15;0.80;;;19.70;78.00;;;;;;5128085;27;45272;-68
2022/11/11 05:12:10;;;;;;;1.00;0.80;;;19.70;78.00;;;;;;5124350;27;45533;-69
2022/11/11 05:22:50;;;;;;;0.68;0.68;;;19.70;78.00;;;;;;5125194;27;45293;-69
2022/11/11 05:25:25;;;;;;;2.33;0.90;;;19.70;78.00;;;;;;5125261;27;45341;-69
2022/11/11 05:27:53;;;;;;;2.13;0.98;;;19.70;78.00;;;;;;5128475;27;45480;-69
2022/11/11 05:30:21;;;;;;;1.25;0.88;;;19.70;78.00;;;;;;5142909;27;46303;-69
2022/11/11 05:32:48;;;;;;;1.40;0.90;;;19.70;78.00;;;;;;5142822;27;45422;-69
2022/11/11 05:35:16;;;;;;;2.42;0.80;;;19.70;78.40;;;;;;5144640;27;45369;-69
2022/11/11 05:37:43;;;;;;;1.42;1.05;;;19.70;77.50;;;;;;5146167;27;45529;-69
2022/11/11 05:40:11;;;;;;;1.90;0.80;;;19.70;76.90;;;;;;5145707;27;47444;-68
2022/11/11 05:42:42;;;;;;;1.38;1.00;;;19.70;77.10;;;;;;5135980;27;45345;-69
2022/11/11 05:45:10;;;;;;;1.15;0.90;;;19.70;77.20;;;;;;5125177;27;45289;-68
2022/11/11 05:47:37;;;;;;;1.95;0.95;;;19.70;77.10;;;;;;5142585;27;45484;-69
2022/11/11 05:50:05;;;;;;;2.38;1.20;;;19.70;76.80;;;;;;5145789;27;46424;-69
2022/11/11 05:52:31;;;;;;;1.70;1.10;;;19.70;76.60;;;;;;5144697;27;45444;-69
2022/11/11 05:54:58;;;;;;;1.80;1.10;;;19.70;76.80;;;;;;5145690;27;45364;-68
2022/11/11 05:57:25;;;;;;;1.20;0.90;;;19.70;77.30;;;;;;5145711;27;45562;-68
2022/11/11 05:59:51;;;;;;;0.90;0.82;;;19.70;77.10;;;;;;5140209;27;46219;-69
2022/11/11 06:02:20;;;;;;;3.10;1.10;;;19.70;77.60;;;;;;5141455;27;45372;-68
2022/11/11 06:04:46;;;;;;;2.90;1.08;;;19.70;78.00;;;;;;5136399;27;45364;-69
2022/11/11 06:07:13;;;;;;;2.42;1.05;;;19.70;78.00;;;;;;5139824;27;45418;-68
2022/11/11 06:09:40;;;;;;;1.33;0.88;;;19.70;78.00;;;;;;5140187;27;46614;-69
2022/11/11 06:12:07;;;;;;;2.05;1.20;;;19.70;77.70;;;;;;5144353;27;45244;-69
2022/11/11 06:14:34;;;;;;;1.40;1.02;;;19.70;78.00;;;;;;5145306;27;45372;-68
2022/11/11 06:17:01;;;;;;;1.50;1.00;;;19.60;77.90;;;;;;5132615;27;45627;-68
2022/11/11 06:19:29;;;;;;;1.35;1.05;;;19.70;78.00;;;;;;5143231;27;46243;-68
2022/11/11 06:22:00;;;;;;;1.98;0.98;;;19.70;78.30;;;;;;5143776;27;45325;-68
2022/11/11 06:24:27;;;;;;;0.90;0.70;;;19.70;78.70;;;;;;5137270;27;45402;-68
2022/11/11 06:26:53;;;;;;;2.05;1.20;;;19.60;78.60;;;;;;5145194;27;45486;-68
2022/11/11 06:29:20;;;;;;;2.45;1.02;;;19.60;77.90;;;;;;5144795;27;46409;-69
2022/11/11 06:31:47;;;;;;;3.95;1.38;;;19.60;77.90;;;;;;5142492;27;45694;-68
2022/11/11 06:34:14;;;;;;;1.00;0.80;;;19.60;77.90;;;;;;5142763;27;45336;-68
2022/11/11 06:36:42;;;;;;;2.22;0.95;;;19.60;77.90;;;;;;5147293;27;45396;-68
2022/11/11 06:39:09;;;;;;;1.85;1.08;;;19.60;77.90;;;;;;5144459;27;46463;-68
2022/11/11 06:41:35;;;;;;;1.35;0.95;;;19.60;77.90;;;;;;5143258;27;45559;-68
2022/11/11 06:44:02;;;;;;;3.03;1.10;;;19.60;77.90;;;;;;5144974;27;45426;-67
2022/11/11 06:46:29;;;;;;;1.15;0.80;;;19.60;77.90;;;;;;5136388;27;45477;-69
2022/11/11 06:48:56;;;;;;;1.55;1.13;;;19.60;77.90;;;;;;5137619;27;47962;-69
2022/11/11 06:51:22;;;;;;;4.10;1.30;;;19.60;78.00;;;;;;5135316;27;45737;-68
2022/11/11 06:53:51;;;;;;;12.95;1.70;;;19.60;77.30;;;;;;5139572;27;45299;-69
2022/11/11 06:56:17;;;;;;;7.20;1.70;;;19.60;77.90;;;;;;5142807;27;45411;-68
2022/11/11 06:58:45;;;;;;;7.25;1.48;;;19.70;78.00;;;;;;5143604;27;46895;-69
2022/11/11 07:01:13;;;;;;;4.68;1.13;;;19.70;78.00;;;;;;5142693;27;45407;-69
2022/11/11 07:03:40;;;;;;;2.08;0.90;;;19.70;78.00;;;;;;5142820;27;45506;-69
2022/11/11 07:06:07;;;;;;;18.55;1.45;;;19.70;78.00;;;;;;5143975;27;45521;-69
2022/11/11 07:08:34;;;;;;;4.30;1.40;;;19.70;78.00;;;;;;5143219;27;46590;-69
2022/11/11 07:11:02;;;;;;;2.97;1.20;;;19.70;78.00;;;;;;5139677;27;45520;-69
2022/11/11 07:13:28;;;;;;;2.10;1.10;;;19.60;77.90;;;;;;5134634;27;45457;-69
2022/11/11 07:15:55;;;;;;;1.33;1.05;;;19.60;77.60;;;;;;5140734;27;45499;-69
2022/11/11 07:18:22;;;;;;;1.70;1.05;;;19.60;77.60;;;;;;5143754;27;47524;-69
2022/11/11 07:20:49;;;;;;;2.58;0.90;;;19.60;77.40;;;;;;5144159;27;45302;-69
2022/11/11 07:23:16;;;;;;;4.20;1.10;;;19.60;77.50;;;;;;5142249;27;45515;-69
2022/11/11 07:25:43;;;;;;;2.05;1.10;;;19.60;77.30;;;;;;5140093;27;45795;-69
2022/11/11 07:28:12;;;;;;;4.78;1.40;;;19.60;77.40;;;;;;5143053;27;46929;-69
2022/11/11 07:30:40;;;;;;;2.28;1.05;;;19.60;77.50;;;;;;5137993;27;45577;-69
2022/11/11 07:33:06;;;;;;;2.42;1.02;;;19.60;77.50;;;;;;5143401;27;45393;-69
2022/11/11 07:35:33;;;;;;;1.63;1.00;;;19.60;77.40;;;;;;5142759;27;45439;-69
2022/11/11 07:38:00;;;;;;;1.77;0.90;;;19.60;77.50;;;;;;5143980;27;45458;-69
2022/11/11 07:40:26;;;;;;;1.33;1.00;;;19.60;77.50;;;;;;5142957;27;45371;-69
2022/11/11 07:42:53;;;;;;;1.85;1.20;;;19.60;77.30;;;;;;5135298;27;45392;-68
2022/11/11 07:45:21;;;;;;;2.10;0.90;;;19.60;77.20;;;;;;5141669;27;45458;-69
2022/11/11 07:47:48;;;;;;;4.13;1.13;;;19.60;77.40;;;;;;5143573;27;48431;-68
2022/11/11 07:50:15;;;;;;;1.67;0.90;;;19.60;77.30;;;;;;5143040;27;45384;-69
2022/11/11 07:52:48;;;;;;;1.77;1.13;;;19.70;77.10;;;;;;5140905;27;45450;-70
2022/11/11 07:55:15;;;;;;;1.40;1.10;;;19.60;76.80;;;;;;5140086;27;45323;-69
2022/11/11 07:57:42;;;;;;;5.95;1.20;;;19.60;76.80;;;;;;5136166;27;47437;-69
2022/11/11 08:00:10;;;;;;;1.90;1.00;;;19.60;76.40;;;;;;5139512;27;45430;-69
2022/11/11 08:02:38;;;;;;;1.27;0.90;;;19.60;76.20;;;;;;5141225;27;45465;-69
2022/11/11 08:05:05;;;;;;;2.42;1.10;;;19.60;73.70;;;;;;5139589;27;45432;-69
2022/11/11 08:07:34;;;;;;;2.17;1.10;;;19.60;73.10;;;;;;5142043;27;48195;-69
2022/11/11 08:10:01;;;;;;;1.33;1.10;;;19.60;72.80;;;;;;5142115;27;45310;-69
2022/11/11 08:15:11;;;;;;;1.95;1.23;;;19.60;70.10;;;;;;5134970;27;45479;-70
2022/11/11 08:17:40;;;;;;;3.75;1.30;;;19.60;69.40;;;;;;5143429;27;45451;-69
2022/11/11 08:20:08;;;;;;;2.47;1.50;;;19.50;69.00;;;;;;5142948;27;45279;-68
2022/11/11 08:22:39;;;;;;;1.58;1.40;;;19.50;69.20;;;;;;5144472;27;45551;-69
2022/11/11 08:25:08;;;;;;;3.03;1.30;;;19.50;68.60;;;;;;5145808;27;45313;-69
2022/11/11 08:27:35;;;;;;;2.47;1.70;;;19.50;68.80;;;;;;5146127;27;48457;-69
2022/11/11 08:30:02;;;;;;;2.55;1.70;;;19.50;69.10;;;;;;5145537;27;45498;-68
2022/11/11 08:32:29;;;;;;;2.45;1.70;;;19.50;69.60;;;;;;5137517;27;45435;-69
2022/11/11 08:34:57;;;;;;;3.70;1.40;;;19.50;69.80;;;;;;5125726;27;45379;-69
2022/11/11 08:37:23;;;;;;;2.30;1.50;;;19.40;69.90;;;;;;5128538;27;45482;-69
2022/11/11 08:39:51;;;;;;;2.42;1.35;;;19.50;69.70;;;;;;5141748;27;45338;-69
2022/11/11 08:42:18;;;;;;;2.13;1.30;;;19.50;70.20;;;;;;5136804;27;45444;-69
2022/11/11 08:44:44;;;;;;;2.85;1.30;;;19.50;70.70;;;;;;5140708;27;45410;-69
2022/11/11 08:47:11;;;;;;;2.50;1.30;;;19.50;71.30;;;;;;5143050;27;46368;-69
2022/11/11 08:49:38;;;;;;;1.75;1.42;;;19.50;71.60;;;;;;5133837;27;45414;-69
2022/11/11 08:52:06;;;;;;;1.95;1.08;;;19.50;71.70;;;;;;5143707;27;45256;-69
2022/11/11 08:54:33;;;;;;;1.40;1.10;;;19.50;72.10;;;;;;5145792;27;45433;-69
2022/11/11 08:57:00;;;;;;;3.30;1.50;;;19.50;72.10;;;;;;5139127;27;45449;-69
2022/11/11 08:59:27;;;;;;;1.80;1.15;;;19.50;72.40;;;;;;5141979;27;45402;-69
2022/11/11 09:01:54;;;;;;;2.75;1.48;;;19.50;72.70;;;;;;5142078;27;45388;-69
2022/11/11 09:04:20;;;;;;;2.45;1.27;;;19.50;72.90;;;;;;5147304;27;45329;-69
2022/11/11 09:06:47;;;;;;;2.08;1.35;;;19.50;72.90;;;;;;5137675;27;45409;-69
2022/11/11 09:09:15;;;;;;;1.55;1.20;;;19.50;72.90;;;;;;5143345;27;45407;-70
2022/11/11 09:11:42;;;;;;;2.08;1.20;;;19.50;72.50;;;;;;5143795;27;45459;-69
2022/11/11 09:14:09;;;;;;;3.00;1.63;;;19.60;72.00;;;;;;5144262;27;45261;-69
2022/11/11 09:16:36;;;;;;;1.50;1.10;;;19.60;71.90;;;;;;5139660;27;46345;-69
2022/11/11 09:19:02;;;;;;;2.10;1.20;;;19.60;71.90;;;;;;5142279;27;45399;-69
2022/11/11 09:21:29;;;;;;;1.83;1.08;;;19.70;71.90;;;;;;5143513;27;45381;-69
2022/11/11 09:23:56;;;;;;;1.63;1.10;;;19.70;72.50;;;;;;5143317;27;45467;-69
2022/11/11 09:26:24;;;;;;;2.60;1.30;;;19.70;72.80;;;;;;5144774;27;47530;-69
2022/11/11 09:28:51;;;;;;;2.67;0.93;;;19.70;72.80;;;;;;5142030;27;45426;-70
2022/11/11 09:31:18;;;;;;;1.55;1.00;;;19.70;73.20;;;;;;5144392;27;45313;-69
2022/11/11 09:33:45;;;;;;;2.00;1.13;;;19.70;73.50;;;;;;5145146;27;45333;-69
2022/11/11 09:36:12;;;;;;;1.90;1.20;;;19.70;73.60;;;;;;5145696;27;47469;-69
2022/11/11 09:38:39;;;;;;;1.65;0.95;;;19.70;73.40;;;;;;5146272;27;45434;-69
2022/11/11 09:41:16;;;;;;;1.38;1.00;;;19.70;73.40;;;;;;5131008;27;45393;-69
2022/11/11 09:43:52;;;;;;;1.55;1.08;;;19.70;73.30;;;;;;5130935;27;45415;-69
2022/11/11 09:46:34;;;;;;;1.63;0.93;;;19.80;73.50;;;;;;5136834;27;45442;-69
2022/11/11 09:49:30;;;;;;;1.92;1.15;;;19.80;73.30;;;;;;5145089;27;45278;-69
2022/11/11 09:52:02;;;;;;;1.73;1.10;;;19.70;73.10;;;;;;5144886;27;45331;-69
2022/11/11 09:54:36;;;;;;;1.50;1.00;;;19.80;73.10;;;;;;5145541;27;45408;-69
2022/11/11 09:57:10;;;;;;;2.33;1.13;;;19.80;72.90;;;;;;5131486;27;48070;-69
2022/11/11 09:59:45;;;;;;;2.05;1.20;;;19.80;72.90;;;;;;5141936;27;45729;-69
2022/11/11 10:02:19;;;;;;;4.25;1.20;;;19.80;73.00;;;;;;5143161;27;45290;-69
2022/11/11 10:04:57;;;;;;;1.95;1.15;;;19.70;72.90;;;;;;5139332;27;45318;-69
2022/11/11 10:07:32;;;;;;;2.40;1.00;;;19.80;72.90;;;;;;5143517;27;45503;-69
2022/11/11 10:10:06;;;;;;;1.52;1.05;;;19.80;73.10;;;;;;5138923;27;45361;-69
2022/11/11 10:12:39;;;;;;;2.00;1.00;;;19.80;73.10;;;;;;5143730;27;45244;-69
2022/11/11 10:15:12;;;;;;;2.45;1.20;;;19.80;73.10;;;;;;5136143;27;45599;-69
2022/11/11 10:17:47;;;;;;;2.00;1.10;;;19.80;73.20;;;;;;5130660;27;46544;-69
2022/11/11 10:20:19;;;;;;;3.10;1.10;;;19.80;73.40;;;;;;5136607;27;45573;-69
2022/11/11 10:22:51;;;;;;;1.92;0.90;;;19.80;73.30;;;;;;5135687;27;45533;-69
2022/11/11 10:25:21;;;;;;;1.52;1.13;;;19.80;73.40;;;;;;5142308;27;45577;-70
2022/11/11 10:27:51;;;;;;;2.42;1.13;;;19.80;73.50;;;;;;5138037;27;48300;-69
2022/11/11 10:30:23;;;;;;;1.50;1.10;;;19.80;73.50;;;;;;5142980;27;46243;-69
2022/11/11 10:32:56;;;;;;;1.90;1.35;;;19.80;73.50;;;;;;5135436;27;45428;-69
2022/11/11 10:35:24;;;;;;;1.98;1.15;;;19.80;73.30;;;;;;5143998;27;45437;-69
2022/11/11 10:38:01;;;;;;;3.05;1.33;;;19.80;73.30;;;;;;5144417;27;46541;-69
2022/11/11 10:40:33;;;;;;;2.55;1.13;;;19.80;73.30;;;;;;5133606;27;45451;-69
2022/11/11 10:43:00;;;;;;;1.52;1.20;;;19.80;73.60;;;;;;5139275;27;45348;-70
2022/11/11 10:45:33;;;;;;;2.50;1.30;;;19.80;73.60;;;;;;5137873;27;45280;-69
2022/11/11 10:48:03;;;;;;;1.50;1.00;;;19.80;73.50;;;;;;5140996;27;47423;-69
2022/11/11 10:50:35;;;;;;;3.03;1.30;;;19.70;73.90;;;;;;5136460;27;45249;-69
2022/11/11 10:53:12;;;;;;;1.60;1.00;;;19.80;74.20;;;;;;5143954;27;45482;-70
2022/11/11 10:55:45;;;;;;;1.65;1.00;;;19.70;74.20;;;;;;5143831;27;45494;-70
2022/11/11 10:58:16;;;;;;;2.47;1.20;;;19.70;74.40;;;;;;5130293;27;47147;-69
2022/11/11 11:00:48;;;;;;;1.25;1.00;;;19.70;74.40;;;;;;5144249;27;45936;-69
2022/11/11 11:03:21;;;;;;;2.15;1.30;;;19.70;74.20;;;;;;5135161;27;45350;-69
2022/11/11 11:05:50;;;;;;;2.08;1.23;;;19.70;74.20;;;;;;5141417;27;45711;-69
2022/11/11 11:08:22;;;;;;;2.35;1.05;;;19.70;75.10;;;;;;5144061;27;48375;-70
2022/11/11 11:10:54;;;;;;;2.22;1.10;;;19.80;75.90;;;;;;5143341;27;45402;-69
2022/11/11 11:13:28;;;;;;;3.40;1.00;;;19.80;76.80;;;;;;5139417;27;45359;-70
2022/11/11 11:16:03;;;;;;;2.97;1.20;;;19.70;76.50;;;;;;5137657;27;45272;-70
2022/11/11 11:18:30;;;;;;;1.77;0.82;;;19.80;76.60;;;;;;5127511;27;45374;-70
2022/11/11 11:20:58;;;;;;;2.28;0.93;;;19.80;76.40;;;;;;5131273;27;45391;-70
2022/11/11 11:23:39;;;;;;;2.40;1.10;;;19.80;76.30;;;;;;5127150;27;45290;-70
2022/11/11 11:26:07;;;;;;;2.42;1.00;;;19.80;76.20;;;;;;5125519;27;45367;-70
2022/11/11 11:28:34;;;;;;;2.15;1.13;;;19.80;76.30;;;;;;5122453;27;46608;-70
2022/11/11 11:31:04;;;;;;;1.20;1.00;;;19.80;76.30;;;;;;5133786;27;45589;-70
2022/11/11 11:33:51;;;;;;;3.05;0.88;;;19.80;76.50;;;;;;5131372;27;45571;-70
2022/11/11 11:36:19;;;;;;;2.00;0.98;;;19.80;76.40;;;;;;5143811;27;45409;-70
2022/11/11 11:38:49;;;;;;;2.65;1.33;;;19.80;76.10;;;;;;5127292;27;45500;-70
2022/11/11 11:41:17;;;;;;;1.70;1.10;;;19.80;75.70;;;;;;5141049;27;45433;-70
2022/11/11 11:43:44;;;;;;;1.60;1.10;;;19.80;75.50;;;;;;5133616;27;45424;-70
2022/11/11 11:46:27;;;;;;;5.07;1.40;;;19.80;75.40;;;;;;5129007;27;45559;-70
2022/11/11 11:49:06;;;;;;;5.00;1.30;;;19.80;75.20;;;;;;5129464;27;45521;-70
2022/11/11 11:51:39;;;;;;;2.60;1.33;;;19.80;75.10;;;;;;5126082;27;45292;-71
2022/11/11 11:54:24;;;;;;;3.63;1.17;;;19.70;74.90;;;;;;5131962;27;45346;-69
2022/11/11 11:56:54;;;;;;;1.98;1.13;;;19.80;75.00;;;;;;5133563;27;45212;-72
2022/11/11 11:59:27;;;;;;;2.13;1.30;;;19.80;75.00;;;;;;5144103;27;47106;-69
2022/11/11 12:02:04;;;;;;;1.98;1.17;;;19.70;75.00;;;;;;5145395;27;45432;-69
2022/11/11 12:05:04;;;;;;;2.20;1.10;;;19.70;74.90;;;;;;5141442;27;45433;-70
2022/11/11 12:07:48;;;;;;;2.88;1.40;;;19.70;74.70;;;;;;5142588;27;45623;-70
2022/11/11 12:10:27;;;;;;;2.38;1.25;;;19.70;74.50;;;;;;5125950;27;47509;-70
2022/11/11 12:13:00;;;;;;;1.90;1.27;;;19.70;74.50;;;;;;5128301;27;45354;-70
2022/11/11 12:15:34;;;;;;;2.08;1.25;;;19.70;74.40;;;;;;5146691;27;45421;-70
2022/11/11 12:18:29;;;;;;;2.42;1.42;;;19.70;74.30;;;;;;5131970;27;45264;-70
2022/11/11 12:21:04;;;;;;;2.13;1.30;;;19.70;74.20;;;;;;5131184;27;46515;-70
2022/11/11 12:23:48;;;;;;;4.18;1.13;;;19.80;74.20;;;;;;5125248;27;45347;-69
2022/11/11 12:26:22;;;;;;;3.10;1.30;;;19.70;74.10;;;;;;5126220;27;45261;-70
2022/11/11 12:29:04;;;;;;;2.75;1.30;;;19.80;74.10;;;;;;5125715;27;45362;-70
2022/11/11 12:31:46;;;;;;;2.45;1.45;;;19.70;74.00;;;;;;5129934;27;45349;-69
2022/11/11 12:34:36;;;;;;;2.75;1.00;;;19.70;73.90;;;;;;5124913;27;45372;-70
2022/11/11 12:37:13;;;;;;;3.25;1.42;;;19.70;73.80;;;;;;5126110;27;45386;-69
2022/11/11 12:39:57;;;;;;;2.50;1.33;;;19.70;73.70;;;;;;5135316;27;45590;-70
2022/11/11 12:42:36;;;;;;;2.75;1.40;;;19.80;73.60;;;;;;5129497;27;48136;-69
2022/11/11 12:45:13;;;;;;;2.65;1.30;;;19.70;73.70;;;;;;5146215;27;45301;-69
2022/11/11 12:47:53;;;;;;;3.10;1.27;;;19.70;73.70;;;;;;5131276;27;45308;-70
2022/11/11 12:50:26;;;;;;;3.47;1.63;;;19.70;73.80;;;;;;5144275;27;45384;-69
2022/11/11 12:53:06;;;;;;;3.97;1.50;;;19.70;73.80;;;;;;5144602;27;48682;-69
2022/11/11 12:55:42;;;;;;;3.65;1.77;;;19.70;73.80;;;;;;5127281;27;45469;-70
2022/11/11 12:58:21;;;;;;;2.85;1.60;;;19.70;73.80;;;;;;5134908;27;45410;-70
2022/11/11 13:00:57;;;;;;;6.57;1.75;;;19.70;73.70;;;;;;5141765;27;45319;-70
2022/11/11 13:03:54;;;;;;;3.70;1.50;;;19.70;73.50;;;;;;5139746;27;46447;-70
2022/11/11 13:06:34;;;;;;;2.03;1.23;;;19.70;74.10;;;;;;5134404;27;45516;-69
2022/11/11 13:09:20;;;;;;;2.63;1.40;;;19.70;74.20;;;;;;5131932;27;45444;-70
2022/11/11 13:11:56;;;;;;;1.83;1.10;;;19.80;74.50;;;;;;5140454;27;45432;-70
2022/11/11 13:14:45;;;;;;;1.60;1.15;;;19.70;74.70;;;;;;5140249;27;46457;-70
2022/11/11 13:17:13;;;;;;;3.00;1.10;;;19.70;74.90;;;;;;5143502;27;45416;-70
2022/11/11 13:19:44;;;;;;;1.58;1.10;;;19.80;75.10;;;;;;5142082;27;45326;-70
2022/11/11 13:22:22;;;;;;;1.77;0.95;;;19.80;75.20;;;;;;5139622;27;45425;-70
2022/11/11 13:24:49;;;;;;;2.15;0.85;;;19.80;75.40;;;;;;5143835;27;47478;-70
2022/11/11 13:27:23;;;;;;;1.38;1.00;;;19.80;75.40;;;;;;5141148;27;45416;-69
2022/11/11 13:30:12;;;;;;;1.27;0.88;;;19.80;75.60;;;;;;5141027;27;45385;-70
2022/11/11 13:32:44;;;;;;;1.60;1.00;;;19.80;75.70;;;;;;5124213;27;45444;-70
2022/11/11 13:35:19;;;;;;;2.17;1.20;;;19.80;75.80;;;;;;5125023;27;45627;-70
2022/11/11 13:37:48;;;;;;;2.55;1.20;;;19.80;76.00;;;;;;5139017;27;45372;-70
2022/11/11 13:40:31;;;;;;;2.80;0.90;;;19.80;75.80;;;;;;5143992;27;45336;-70
2022/11/11 13:42:58;;;;;;;2.08;1.10;;;19.80;75.90;;;;;;5145527;27;45362;-70
2022/11/11 13:45:29;;;;;;;1.35;0.90;;;19.80;75.90;;;;;;5145156;27;47557;-70
2022/11/11 13:47:57;;;;;;;1.08;0.80;;;19.80;76.00;;;;;;5135088;27;45472;-70
2022/11/11 13:50:29;;;;;;;1.50;1.02;;;19.80;76.10;;;;;;5137673;27;45378;-70
2022/11/11 13:53:00;;;;;;;1.33;0.90;;;19.80;76.10;;;;;;5144911;27;45190;-70
2022/11/11 13:55:32;;;;;;;1.35;0.88;;;19.70;75.70;;;;;;5136941;27;48452;-69
2022/11/11 13:58:00;;;;;;;1.00;0.90;;;19.80;75.90;;;;;;5123348;27;45626;-70
2022/11/11 14:00:30;;;;;;;1.92;0.95;;;19.80;75.90;;;;;;5122887;27;45200;-70
2022/11/11 14:03:34;;;;;;;1.25;1.10;;;19.80;75.90;;;;;;5124367;27;45540;-69
2022/11/11 14:06:29;;;;;;;2.05;1.25;;;19.70;75.60;;;;;;5101085;27;46702;-70
2022/11/11 14:08:57;;;;;;;1.63;1.23;;;19.80;75.60;;;;;;5128213;27;45232;-70
2022/11/11 14:11:31;;;;;;;4.13;1.20;;;19.80;75.50;;;;;;5145363;27;45358;-69
2022/11/11 14:13:59;;;;;;;1.58;0.88;;;19.80;75.50;;;;;;5128818;27;45460;-70
2022/11/11 14:17:00;;;;;;;2.03;0.95;;;19.80;75.60;;;;;;5138158;27;47761;-70
2022/11/11 14:19:31;;;;;;;3.13;1.20;;;19.80;75.60;;;;;;5146537;27;45241;-70
2022/11/11 14:21:59;;;;;;;2.00;1.02;;;19.80;75.80;;;;;;5133668;27;45572;-70
2022/11/11 14:24:54;;;;;;;1.77;1.00;;;19.80;75.70;;;;;;5066714;27;45457;-71